Time;durP1;ratioP1;P1;durP2;ratioP2;P2;SDS_P1;SDS_P2;PMS_P1;PMS_P2;Temp;Humidity;BMP_temperature;BMP_pressure;BME280_temperature;BME280_humidity;BME280_pressure;Samples;Min_cycle;Max_cycle;Signal;HPM_P1;HPM_P2
2021/09/10 00:01:22;;;;;;;18.73;12.82;;;;;;;16.43;60.24;100122.56;5066709;28;20515;-70
2021/09/10 00:03:48;;;;;;;23.95;13.73;;;;;;;16.35;60.19;100119.81;5066575;28;20044;-70
2021/09/10 00:06:15;;;;;;;17.98;12.82;;;;;;;16.31;60.36;100118.44;5067371;28;20079;-71
2021/09/10 00:08:42;;;;;;;19.05;13.57;;;;;;;16.28;60.42;100119.59;5066980;28;20055;-70
2021/09/10 00:11:09;;;;;;;21.40;13.55;;;;;;;16.25;60.46;100131.38;5066671;28;20064;-70
2021/09/10 00:13:36;;;;;;;20.67;14.23;;;;;;;16.24;60.36;100124.38;5067444;28;20064;-70
2021/09/10 00:16:05;;;;;;;20.67;13.88;;;;;;;16.23;60.49;100119.19;5066982;28;20051;-69
2021/09/10 00:18:32;;;;;;;18.00;13.50;;;;;;;16.21;60.58;100119.34;5065728;28;20057;-70
2021/09/10 00:20:59;;;;;;;21.88;14.70;;;;;;;16.20;60.47;100123.00;5065900;28;20063;-70
2021/09/10 00:23:26;;;;;;;19.00;12.82;;;;;;;16.18;60.53;100122.31;5066577;28;20048;-70
2021/09/10 00:25:53;;;;;;;21.98;14.48;;;;;;;16.15;60.51;100119.97;5065002;28;20136;-69
2021/09/10 00:28:20;;;;;;;16.88;13.20;;;;;;;16.16;60.50;100126.94;5066697;28;20460;-70
2021/09/10 00:30:46;;;;;;;19.10;13.55;;;;;;;16.13;60.60;100118.41;5066642;28;20533;-69
2021/09/10 00:33:15;;;;;;;18.35;13.75;;;;;;;16.10;60.75;100113.38;5066474;28;20044;-69
2021/09/10 00:35:41;;;;;;;19.58;12.82;;;;;;;16.05;60.81;100120.00;5065887;28;20056;-68
2021/09/10 00:38:08;;;;;;;21.20;14.30;;;;;;;16.03;61.02;100124.66;5066924;28;20044;-69
2021/09/10 00:40:35;;;;;;;19.75;13.80;;;;;;;16.01;60.95;100123.13;5065881;28;20064;-70
2021/09/10 00:43:02;;;;;;;18.27;13.43;;;;;;;15.98;61.09;100115.44;5047930;28;20056;-68
2021/09/10 00:45:29;;;;;;;27.90;13.45;;;;;;;15.94;61.04;100112.25;5047619;28;20429;-71
2021/09/10 00:47:57;;;;;;;20.65;14.65;;;;;;;15.90;61.19;100113.53;5046073;28;20168;-69
2021/09/10 00:50:26;;;;;;;24.40;15.73;;;;;;;15.90;61.23;100116.19;5046314;28;20067;-70
2021/09/10 00:52:53;;;;;;;18.88;13.60;;;;;;;15.85;61.22;100113.97;5046390;28;20049;-70
2021/09/10 00:55:25;;;;;;;19.77;13.98;;;;;;;15.83;61.29;100115.13;5045901;28;20055;-70
2021/09/10 00:57:53;;;;;;;20.73;14.77;;;;;;;15.79;61.34;100124.38;5045698;28;20045;-69
2021/09/10 01:00:19;;;;;;;22.17;13.93;;;;;;;15.77;61.34;100127.19;5046031;28;20056;-72
2021/09/10 01:02:47;;;;;;;20.70;13.70;;;;;;;15.75;61.34;100123.81;5046069;28;20052;-70
2021/09/10 01:05:14;;;;;;;15.90;12.57;;;;;;;15.75;61.33;100117.66;5045839;28;20481;-69
2021/09/10 01:07:44;;;;;;;20.60;13.65;;;;;;;15.76;61.38;100119.34;5045266;28;20499;-70
2021/09/10 01:10:12;;;;;;;19.52;14.18;;;;;;;15.73;61.49;100112.44;5046059;28;20049;-71
2021/09/10 01:12:41;;;;;;;19.10;13.32;;;;;;;15.74;61.53;100116.84;5045469;28;20049;-69
2021/09/10 01:15:09;;;;;;;23.45;14.52;;;;;;;15.70;61.56;100118.09;5046928;28;20543;-69
2021/09/10 01:17:36;;;;;;;22.83;15.55;;;;;;;15.69;61.50;100121.72;5045583;28;20448;-70
2021/09/10 01:20:04;;;;;;;19.10;14.07;;;;;;;15.67;61.33;100116.53;5045637;28;20090;-69
2021/09/10 01:22:31;;;;;;;19.33;13.70;;;;;;;15.66;61.59;100120.22;5047086;28;20045;-71
2021/09/10 01:25:11;;;;;;;19.65;13.55;;;;;;;15.67;61.63;100121.03;5046344;28;20060;-71
2021/09/10 01:27:39;;;;;;;19.25;14.25;;;;;;;15.64;61.54;100114.16;5044187;28;20053;-70
2021/09/10 01:30:07;;;;;;;19.40;13.63;;;;;;;15.60;61.65;100117.28;5010412;28;20053;-69
2021/09/10 01:32:34;;;;;;;23.63;15.35;;;;;;;15.57;61.58;100114.91;5044650;28;20056;-69
2021/09/10 01:35:01;;;;;;;17.65;12.43;;;;;;;15.56;61.72;100113.25;5046395;28;20044;-70
2021/09/10 01:37:28;;;;;;;20.00;14.10;;;;;;;15.54;61.80;100113.41;5045148;28;20041;-71
2021/09/10 01:39:55;;;;;;;17.35;13.77;;;;;;;15.54;61.72;100120.53;5044246;28;20045;-69
2021/09/10 01:42:23;;;;;;;22.00;14.85;;;;;;;15.52;61.83;100122.50;5045703;28;20068;-70
2021/09/10 01:44:50;;;;;;;18.02;13.88;;;;;;;15.49;61.71;100115.66;5045707;28;20061;-69
2021/09/10 01:47:17;;;;;;;18.58;13.82;;;;;;;15.46;61.79;100119.44;5044832;28;20060;-70
2021/09/10 01:49:44;;;;;;;18.77;13.15;;;;;;;15.44;61.92;100118.75;5045542;28;20540;-71
2021/09/10 01:52:11;;;;;;;22.80;14.13;;;;;;;15.42;61.90;100112.72;5045551;28;20056;-69
2021/09/10 01:54:37;;;;;;;19.15;13.57;;;;;;;15.40;61.83;100114.72;5044756;28;20049;-69
2021/09/10 01:57:04;;;;;;;19.08;13.48;;;;;;;15.38;61.95;100114.03;5044623;28;20049;-70
2021/09/10 01:59:33;;;;;;;20.08;14.13;;;;;;;15.36;62.00;100107.16;5045574;28;20041;-70
2021/09/10 02:02:00;;;;;;;22.15;15.20;;;;;;;15.33;62.05;100105.63;5045209;28;20045;-70
2021/09/10 02:04:27;;;;;;;18.58;13.93;;;;;;;15.33;62.07;100108.28;5045206;28;20064;-69
2021/09/10 02:06:54;;;;;;;18.50;13.95;;;;;;;15.30;62.03;100108.56;5045426;28;20056;-70
2021/09/10 02:09:21;;;;;;;24.60;14.52;;;;;;;15.28;62.03;100106.06;5044945;28;20045;-69
2021/09/10 02:11:48;;;;;;;19.30;13.52;;;;;;;15.29;62.16;100112.22;5044672;28;20121;-70
2021/09/10 02:14:15;;;;;;;24.08;13.73;;;;;;;15.27;62.04;100103.56;5043721;28;20049;-71
2021/09/10 02:16:43;;;;;;;17.52;13.00;;;;;;;15.25;62.16;100100.19;5044946;28;20182;-70
2021/09/10 02:19:10;;;;;;;15.70;13.25;;;;;;;15.25;62.02;100103.69;5045892;28;20064;-70
2021/09/10 02:21:38;;;;;;;17.55;13.27;;;;;;;15.24;61.98;100099.34;5044098;28;20049;-70
2021/09/10 02:24:05;;;;;;;22.52;12.98;;;;;;;15.23;62.09;100107.47;5045297;28;20129;-71
2021/09/10 02:26:32;;;;;;;20.30;14.20;;;;;;;15.22;62.03;100108.47;5043735;28;20053;-73
2021/09/10 02:28:59;;;;;;;21.88;14.43;;;;;;;15.22;62.11;100109.31;5045125;28;20045;-71
2021/09/10 02:31:26;;;;;;;20.33;12.77;;;;;;;15.21;62.07;100104.94;5045619;28;20053;-71
2021/09/10 02:33:55;;;;;;;21.50;15.20;;;;;;;15.21;62.23;100104.94;5045709;28;20049;-69
2021/09/10 02:36:22;;;;;;;19.98;14.30;;;;;;;15.20;62.14;100107.78;5046096;28;20109;-71
2021/09/10 02:38:49;;;;;;;20.00;13.15;;;;;;;15.20;62.08;100105.97;5048163;28;20061;-71
2021/09/10 02:41:16;;;;;;;20.77;13.27;;;;;;;15.21;62.09;100102.28;5046696;28;20041;-70
2021/09/10 02:43:43;;;;;;;18.67;12.98;;;;;;;15.22;62.31;100100.50;5050359;28;20080;-71
2021/09/10 02:46:09;;;;;;;17.10;12.75;;;;;;;15.21;61.98;100096.16;5049800;28;20052;-72
2021/09/10 02:48:36;;;;;;;17.25;12.30;;;;;;;15.22;61.88;100100.50;5048652;28;20473;-70
2021/09/10 02:51:05;;;;;;;21.92;13.63;;;;;;;15.21;62.06;100101.47;5049716;28;20063;-73
2021/09/10 02:53:32;;;;;;;17.77;12.65;;;;;;;15.20;62.06;100095.31;5048958;28;20052;-70
2021/09/10 02:56:00;;;;;;;20.55;12.65;;;;;;;15.18;62.06;100088.44;5047446;28;20041;-72
2021/09/10 02:58:27;;;;;;;19.08;13.48;;;;;;;15.20;61.99;100099.81;5058144;28;20524;-71
2021/09/10 03:00:59;;;;;;;19.05;13.60;;;;;;;15.19;62.00;100093.63;5048585;28;20056;-71
2021/09/10 03:03:26;;;;;;;18.40;13.68;;;;;;;15.20;61.83;100097.16;5049574;28;20488;-71
2021/09/10 03:05:53;;;;;;;22.05;13.50;;;;;;;15.19;61.93;100100.78;5048690;28;20041;-70
2021/09/10 03:08:21;;;;;;;21.60;13.30;;;;;;;15.19;62.04;100100.78;5047365;28;20115;-73
2021/09/10 03:10:49;;;;;;;18.25;12.80;;;;;;;15.18;61.85;100097.28;5048432;28;20049;-73
2021/09/10 03:13:16;;;;;;;18.23;12.93;;;;;;;15.18;61.90;100096.41;5048107;28;20068;-71
2021/09/10 03:15:43;;;;;;;20.88;14.05;;;;;;;15.19;61.88;100095.44;5047511;28;20178;-72
2021/09/10 03:18:10;;;;;;;19.88;13.65;;;;;;;15.20;61.76;100097.16;5047366;28;20162;-70
2021/09/10 03:20:37;;;;;;;19.65;14.45;;;;;;;15.19;61.85;100098.13;5047431;28;20359;-72
2021/09/10 03:23:05;;;;;;;18.63;12.38;;;;;;;15.18;61.54;100094.63;5047276;28;20091;-72
2021/09/10 03:25:33;;;;;;;22.73;13.55;;;;;;;15.19;61.76;100092.78;5045246;28;20045;-71
2021/09/10 03:28:00;;;;;;;19.10;13.00;;;;;;;15.20;61.62;100097.16;5047568;28;20053;-71
2021/09/10 03:30:27;;;;;;;21.90;14.50;;;;;;;15.19;61.68;100096.28;5047436;28;20063;-70
2021/09/10 03:32:54;;;;;;;18.00;13.18;;;;;;;15.21;61.72;100093.47;5047705;28;20056;-71
2021/09/10 03:35:21;;;;;;;18.65;12.27;;;;;;;15.19;61.57;100093.63;5047127;28;20041;-71
2021/09/10 03:37:48;;;;;;;24.27;14.40;;;;;;;15.18;61.59;100091.97;5047030;28;20059;-71
2021/09/10 03:40:15;;;;;;;17.58;12.57;;;;;;;15.20;61.49;100094.47;5047483;28;20099;-72
2021/09/10 03:42:44;;;;;;;17.35;13.02;;;;;;;15.20;61.48;100091.81;5047049;28;20056;-72
2021/09/10 03:45:11;;;;;;;19.58;13.10;;;;;;;15.18;61.54;100094.63;5047592;28;20059;-72
2021/09/10 03:47:38;;;;;;;20.00;13.50;;;;;;;15.17;61.49;100089.44;5057129;28;20505;-71
2021/09/10 03:50:06;;;;;;;21.85;13.80;;;;;;;15.15;61.53;100092.25;5046162;28;20131;-70
2021/09/10 03:52:33;;;;;;;16.88;11.88;;;;;;;15.15;61.46;100088.75;5047196;28;20049;-71
2021/09/10 03:55:00;;;;;;;19.65;13.55;;;;;;;15.14;61.52;100087.06;5046256;28;20045;-70
2021/09/10 03:57:27;;;;;;;18.50;12.57;;;;;;;15.14;61.50;100089.72;5043893;28;20041;-71
2021/09/10 03:59:55;;;;;;;19.95;14.55;;;;;;;15.13;61.50;100094.22;5047585;28;20096;-70
2021/09/10 04:02:22;;;;;;;18.13;12.98;;;;;;;15.12;61.44;100102.34;5046434;28;20053;-72
2021/09/10 04:04:49;;;;;;;19.63;12.73;;;;;;;15.12;61.59;100102.34;5046927;28;20052;-71
2021/09/10 04:07:16;;;;;;;26.65;13.18;;;;;;;15.14;61.53;100092.38;5047362;28;20064;-72
2021/09/10 04:09:42;;;;;;;17.60;12.52;;;;;;;15.13;61.47;100101.38;5045713;28;20086;-72
2021/09/10 04:12:09;;;;;;;20.67;13.48;;;;;;;15.09;61.36;100098.97;5046332;28;20056;-71
2021/09/10 04:14:36;;;;;;;15.77;12.27;;;;;;;15.12;61.37;100091.69;5048381;28;20045;-72
2021/09/10 04:17:05;;;;;;;19.20;13.70;;;;;;;15.12;61.41;100095.19;5048979;28;20085;-71
2021/09/10 04:19:32;;;;;;;18.38;14.20;;;;;;;15.13;61.35;100088.06;5046393;28;20041;-75
2021/09/10 04:22:00;;;;;;;22.38;13.75;;;;;;;15.12;61.29;100095.19;5049449;28;20436;-74
2021/09/10 04:24:27;;;;;;;16.92;12.07;;;;;;;15.12;61.28;100092.53;5049098;28;20504;-71
2021/09/10 04:26:54;;;;;;;19.67;12.95;;;;;;;15.14;61.26;100093.22;5045552;28;20053;-71
2021/09/10 04:29:21;;;;;;;19.50;13.20;;;;;;;15.19;61.04;100092.78;5048334;28;20052;-74
2021/09/10 04:31:48;;;;;;;48.42;43.28;;;;;;;15.35;60.96;100094.84;5047393;28;20045;-74
2021/09/10 04:34:16;;;;;;;20.23;12.23;;;;;;;15.56;60.54;100099.94;5045173;28;20503;-73
2021/09/10 04:36:43;;;;;;;19.77;13.90;;;;;;;15.84;60.12;100100.78;5051376;28;20044;-71
2021/09/10 04:39:10;;;;;;;18.77;12.63;;;;;;;16.19;59.39;100094.69;5063200;28;20044;-72
2021/09/10 04:41:37;;;;;;;24.00;14.35;;;;;;;16.57;58.60;100098.03;5059679;28;20496;-75
2021/09/10 04:44:04;;;;;;;16.20;12.02;;;;;;;16.93;57.80;100097.16;5067999;28;20048;-75
2021/09/10 04:46:31;;;;;;;19.95;13.38;;;;;;;17.23;57.15;100095.81;5072873;28;20206;-75
2021/09/10 04:48:59;;;;;;;20.02;12.45;;;;;;;17.51;56.41;100098.31;5067393;28;20041;-77
2021/09/10 04:51:29;;;;;;;17.38;11.43;;;;;;;17.77;55.67;100095.56;5047002;28;20045;-75
2021/09/10 04:53:56;;;;;;;20.58;13.45;;;;;;;18.00;55.11;100095.84;5050468;28;20126;-74
2021/09/10 04:56:23;;;;;;;14.93;11.77;;;;;;;18.18;54.48;100103.72;5055557;28;20052;-73
2021/09/10 04:58:50;;;;;;;21.52;14.23;;;;;;;18.39;54.16;100097.91;5058264;28;20505;-74
2021/09/10 05:01:17;;;;;;;17.35;11.30;;;;;;;18.57;53.68;100097.75;5056156;28;20055;-74
2021/09/10 05:03:44;;;;;;;20.90;11.55;;;;;;;18.65;53.04;100104.94;5050170;28;20128;-74
2021/09/10 05:06:11;;;;;;;16.83;11.27;;;;;;;18.65;52.99;100096.91;5045598;28;20409;-73
2021/09/10 05:08:41;;;;;;;15.30;10.35;;;;;;;18.64;53.01;100092.59;5045648;28;20508;-73
2021/09/10 05:11:08;;;;;;;17.27;11.68;;;;;;;18.49;52.84;100095.94;5027709;28;20053;-76
2021/09/10 05:13:35;;;;;;;20.02;12.65;;;;;;;18.17;53.38;100106.56;5046027;28;20128;-75
2021/09/10 05:16:02;;;;;;;17.15;10.73;;;;;;;17.86;54.08;100097.31;5046773;28;20045;-75
2021/09/10 05:18:29;;;;;;;17.75;11.18;;;;;;;17.64;54.42;100103.22;5047806;28;20084;-73
2021/09/10 05:20:56;;;;;;;18.20;11.02;;;;;;;17.41;54.82;100106.44;5049290;28;20060;-78
2021/09/10 05:23:23;;;;;;;19.52;12.20;;;;;;;17.28;55.23;100111.38;5056744;28;20040;-75
2021/09/10 05:25:51;;;;;;;17.23;11.75;;;;;;;17.14;55.42;100112.78;5063416;28;20056;-76
2021/09/10 05:28:18;;;;;;;18.38;12.05;;;;;;;17.09;55.50;100109.78;5066409;28;20052;-74
2021/09/10 05:30:45;;;;;;;16.88;12.43;;;;;;;17.04;55.98;100104.06;5066346;28;20044;-74
2021/09/10 05:33:12;;;;;;;14.20;10.98;;;;;;;16.99;55.92;100110.69;5067344;28;20040;-75
2021/09/10 05:35:39;;;;;;;17.63;11.57;;;;;;;16.99;55.99;100108.03;5065965;28;20669;-75
2021/09/10 05:38:06;;;;;;;22.52;12.05;;;;;;;17.01;55.90;100107.88;5068212;28;20483;-76
2021/09/10 05:40:33;;;;;;;15.73;10.38;;;;;;;17.03;55.91;100113.06;5066927;28;20051;-76
2021/09/10 05:43:01;;;;;;;17.35;12.18;;;;;;;17.05;55.84;100111.94;5067696;28;20044;-76
2021/09/10 05:45:28;;;;;;;16.20;12.02;;;;;;;17.09;55.84;100107.94;5066115;28;20044;-77
2021/09/10 05:47:55;;;;;;;19.85;11.75;;;;;;;17.12;55.90;100112.94;5066753;28;20056;-72
2021/09/10 05:50:22;;;;;;;16.15;10.65;;;;;;;17.16;55.90;100119.66;5067206;28;20483;-74
2021/09/10 05:52:49;;;;;;;18.02;11.00;;;;;;;17.23;56.00;100113.69;5065107;28;20055;-74
2021/09/10 05:55:15;;;;;;;15.38;11.10;;;;;;;17.27;55.88;100115.88;5064584;28;20638;-76
2021/09/10 05:57:42;;;;;;;18.15;11.65;;;;;;;17.32;55.79;100113.59;5063606;28;20131;-73
2021/09/10 06:00:12;;;;;;;15.25;10.82;;;;;;;17.39;55.69;100122.63;5065656;28;20048;-75
2021/09/10 06:02:40;;;;;;;16.83;10.90;;;;;;;17.45;55.57;100120.31;5066078;28;20060;-76
2021/09/10 06:05:07;;;;;;;15.40;10.15;;;;;;;17.54;55.44;100120.19;5068819;28;20239;-78
2021/09/10 06:07:34;;;;;;;16.50;10.25;;;;;;;17.61;55.39;100124.88;5068271;28;20049;-79
2021/09/10 06:10:02;;;;;;;15.98;10.98;;;;;;;17.69;55.12;100116.94;5069229;28;20061;-78
2021/09/10 06:12:29;;;;;;;16.42;10.77;;;;;;;17.78;55.20;100126.63;5066562;28;20056;-76
2021/09/10 06:14:56;;;;;;;16.60;10.75;;;;;;;17.85;54.90;100124.16;5069261;28;20076;-77
2021/09/10 06:17:25;;;;;;;15.32;9.32;;;;;;;17.94;54.79;100126.72;5070684;28;20048;-75
2021/09/10 06:19:51;;;;;;;16.80;10.10;;;;;;;18.05;54.63;100124.75;5070340;28;20051;-76
2021/09/10 06:22:18;;;;;;;19.35;11.05;;;;;;;18.13;54.34;100122.94;5074456;28;20052;-78
2021/09/10 06:24:45;;;;;;;10.57;7.97;;;;;;;18.25;54.43;100123.47;5075320;28;20527;-80
2021/09/10 06:27:12;;;;;;;15.63;9.98;;;;;;;18.35;54.01;100128.69;5080651;28;20067;-75
2021/09/10 06:29:40;;;;;;;17.17;9.63;;;;;;;18.46;54.07;100130.19;5079521;28;20048;-77
2021/09/10 06:32:11;;;;;;;16.27;10.52;;;;;;;18.57;53.96;100132.53;5078119;28;20044;-75
2021/09/10 06:34:40;;;;;;;14.73;10.48;;;;;;;18.72;53.76;100130.03;5076788;28;20100;-77
2021/09/10 06:37:07;;;;;;;15.35;8.93;;;;;;;18.81;53.40;100133.53;5081935;28;20048;-76
2021/09/10 06:39:35;;;;;;;15.25;9.07;;;;;;;18.91;53.08;100132.38;5084124;28;20052;-77
2021/09/10 06:42:02;;;;;;;13.27;9.05;;;;;;;19.06;52.73;100139.75;5081954;28;20158;-78
2021/09/10 06:44:29;;;;;;;13.27;9.10;;;;;;;19.15;52.49;100138.72;5086336;28;20049;-79
2021/09/10 06:46:56;;;;;;;15.45;10.05;;;;;;;19.26;52.37;100141.03;5083081;28;20051;-77
2021/09/10 06:49:23;;;;;;;13.52;8.73;;;;;;;19.38;52.24;100143.38;5085258;28;20045;-78
2021/09/10 06:51:52;;;;;;;14.48;8.93;;;;;;;19.52;52.06;100144.47;5085609;28;20055;-76
2021/09/10 06:54:19;;;;;;;14.13;8.55;;;;;;;19.63;51.72;100153.00;5080368;28;20075;-80
2021/09/10 06:56:45;;;;;;;11.50;8.25;;;;;;;19.74;51.70;100153.69;5080851;28;20060;-79
2021/09/10 06:59:16;;;;;;;14.00;8.43;;;;;;;19.87;51.49;100148.59;5079544;28;20135;-81
2021/09/10 07:01:43;;;;;;;13.63;9.15;;;;;;;20.01;51.12;100152.38;5073102;28;20123;-78
2021/09/10 07:04:10;;;;;;;16.23;9.45;;;;;;;20.14;50.95;100155.31;5073393;28;20047;-77
2021/09/10 07:06:37;;;;;;;13.82;9.05;;;;;;;20.27;50.39;100146.69;5069252;28;20053;-79
2021/09/10 07:09:06;;;;;;;10.77;7.00;;;;;;;20.39;50.33;100153.31;5046187;28;20048;-77
2021/09/10 07:11:33;;;;;;;25.75;9.07;;;;;;;20.55;49.95;100148.88;5073774;28;20066;-80
2021/09/10 07:14:01;;;;;;;10.52;7.53;;;;;;;20.67;49.67;100155.53;5078849;28;20048;-76
2021/09/10 07:16:27;;;;;;;10.20;6.68;;;;;;;20.80;49.25;100149.53;5078335;28;20049;-74
2021/09/10 07:18:54;;;;;;;17.33;8.82;;;;;;;20.93;49.05;100160.50;5077298;28;20053;-78
2021/09/10 07:21:21;;;;;;;15.00;6.90;;;;;;;21.10;48.97;100155.78;5080277;28;20051;-77
2021/09/10 07:23:48;;;;;;;11.43;7.47;;;;;;;21.24;48.54;100156.03;5082193;28;20059;-78
2021/09/10 07:26:17;;;;;;;9.15;5.70;;;;;;;21.37;48.25;100154.38;5069918;28;20068;-77
2021/09/10 07:28:45;;;;;;;12.98;7.22;;;;;;;21.53;47.56;100150.69;5068345;28;20135;-77
2021/09/10 07:31:12;;;;;;;12.18;5.90;;;;;;;21.67;46.72;100153.56;5068936;28;20059;-74
2021/09/10 07:33:41;;;;;;;11.70;7.38;;;;;;;21.81;46.26;100158.09;5069760;28;20524;-77
2021/09/10 07:36:09;;;;;;;15.65;7.15;;;;;;;21.96;45.88;100153.53;5067395;28;20489;-75
2021/09/10 07:38:36;;;;;;;11.30;6.15;;;;;;;22.11;45.56;100155.34;5064803;28;20058;-74
2021/09/10 07:41:04;;;;;;;9.65;6.90;;;;;;;22.24;45.34;100160.91;5063924;28;20681;-75
2021/09/10 07:43:33;;;;;;;11.32;6.78;;;;;;;22.40;44.84;100161.69;5065218;28;20151;-74
2021/09/10 07:45:59;;;;;;;10.73;6.72;;;;;;;22.53;44.17;100160.00;5063841;28;20044;-71
2021/09/10 07:48:27;;;;;;;9.65;5.57;;;;;;;22.76;44.38;100160.81;5065607;28;20135;-71
2021/09/10 07:50:53;;;;;;;10.98;6.47;;;;;;;23.05;43.42;100163.38;5065453;28;20132;-75
2021/09/10 07:53:20;;;;;;;8.98;6.30;;;;;;;23.22;43.34;100155.00;5063116;28;20519;-74
2021/09/10 07:55:47;;;;;;;12.57;6.90;;;;;;;23.42;42.93;100160.53;5061805;28;20044;-77
2021/09/10 07:58:14;;;;;;;10.18;7.47;;;;;;;23.57;42.49;100168.50;5064491;28;20056;-72
2021/09/10 08:00:42;;;;;;;8.35;5.88;;;;;;;23.71;41.91;100164.84;5067652;28;20040;-75
2021/09/10 08:03:09;;;;;;;10.13;5.68;;;;;;;23.97;41.72;100171.44;5065546;28;20041;-72
2021/09/10 08:05:38;;;;;;;11.50;6.60;;;;;;;24.20;41.26;100163.84;5064665;28;20048;-72
2021/09/10 08:08:06;;;;;;;13.73;6.18;;;;;;;24.47;41.03;100169.31;5062821;28;20057;-71
2021/09/10 08:10:33;;;;;;;17.95;7.30;;;;;;;24.73;41.25;100170.44;5065331;28;20404;-70
2021/09/10 08:13:00;;;;;;;13.88;7.55;;;;;;;25.00;40.60;100169.38;5064558;28;20044;-72
2021/09/10 08:15:26;;;;;;;10.93;6.63;;;;;;;25.28;40.04;100171.09;5062465;28;20048;-68
2021/09/10 08:17:55;;;;;;;9.68;5.45;;;;;;;25.45;39.40;100165.22;5065646;28;20053;-67
2021/09/10 08:20:22;;;;;;;10.07;6.22;;;;;;;25.60;39.05;100170.38;5066666;28;20048;-72
2021/09/10 08:22:49;;;;;;;12.13;7.22;;;;;;;25.72;38.58;100166.81;5069997;28;20523;-76
2021/09/10 08:25:16;;;;;;;15.07;6.25;;;;;;;25.87;38.64;100163.00;5066069;28;20058;-72
2021/09/10 08:27:43;;;;;;;12.63;5.72;;;;;;;26.03;38.19;100167.97;5061980;28;20141;-72
2021/09/10 08:30:11;;;;;;;7.60;5.90;;;;;;;26.06;38.29;100156.72;5064904;28;20612;-74
2021/09/10 08:32:38;;;;;;;11.90;6.03;;;;;;;26.15;37.73;100159.19;5045286;28;20044;-72
2021/09/10 08:35:07;;;;;;;10.55;5.95;;;;;;;26.24;37.37;100157.88;5062612;28;20514;-73
2021/09/10 08:37:38;;;;;;;12.25;7.38;;;;;;;26.34;37.15;100160.94;5062047;28;20049;-74
2021/09/10 08:40:06;;;;;;;9.57;5.80;;;;;;;26.48;36.85;100162.50;5061433;28;20055;-72
2021/09/10 08:42:33;;;;;;;8.32;5.20;;;;;;;26.71;36.75;100161.16;5061527;28;20056;-74
2021/09/10 08:45:03;;;;;;;11.00;6.07;;;;;;;26.92;36.54;100159.97;5062954;28;20045;-76
2021/09/10 08:47:31;;;;;;;17.13;6.20;;;;;;;27.15;36.17;100153.91;5066670;28;20048;-71
2021/09/10 08:49:58;;;;;;;10.15;5.13;;;;;;;27.21;36.13;100154.91;5062834;28;20056;-73
2021/09/10 08:52:30;;;;;;;10.15;5.90;;;;;;;27.26;35.48;100164.06;5064446;28;20055;-74
2021/09/10 08:54:57;;;;;;;8.93;5.63;;;;;;;27.29;35.70;100164.66;5063494;28;20445;-72
2021/09/10 08:57:26;;;;;;;9.02;6.15;;;;;;;27.41;35.40;100163.69;5060114;28;20048;-72
2021/09/10 09:00:09;;;;;;;8.18;5.40;;;;;;;27.61;35.68;100163.47;5068254;28;20390;-76
2021/09/10 09:02:36;;;;;;;10.45;4.88;;;;;;;27.70;35.55;100163.19;5066073;28;20087;-72
2021/09/10 09:05:03;;;;;;;7.72;5.75;;;;;;;27.59;35.26;100164.78;5063523;28;20047;-75
2021/09/10 09:07:32;;;;;;;8.73;5.55;;;;;;;27.57;35.21;100156.84;5066016;28;20147;-79
2021/09/10 09:10:01;;;;;;;10.18;5.60;;;;;;;27.70;35.25;100161.28;5064535;28;20052;-78
2021/09/10 09:12:30;;;;;;;7.63;4.97;;;;;;;27.77;34.95;100167.47;5065601;28;20052;-76
2021/09/10 09:15:06;;;;;;;10.38;6.10;;;;;;;27.83;34.97;100163.84;5064876;28;20090;-77
2021/09/10 09:17:35;;;;;;;11.93;5.57;;;;;;;27.93;33.80;100163.34;5065946;28;20049;-78
2021/09/10 09:20:22;;;;;;;8.77;5.13;;;;;;;27.83;33.96;100158.41;5068082;28;20052;-76
2021/09/10 09:22:56;;;;;;;10.75;5.50;;;;;;;27.80;34.23;100163.47;5066134;28;20044;-78
2021/09/10 09:28:21;;;;;;;8.95;5.05;;;;;;;27.56;34.07;100154.38;5002375;28;20057;-78
2021/09/10 09:30:50;;;;;;;14.75;5.53;;;;;;;27.63;34.39;100149.69;5015142;28;20042;-77
2021/09/10 09:33:20;;;;;;;10.93;4.35;;;;;;;27.76;33.63;100162.28;5005358;28;20042;-76
2021/09/10 09:35:50;;;;;;;8.70;4.63;;;;;;;27.71;33.48;100160.22;5003564;28;20465;-77
2021/09/10 09:38:20;;;;;;;8.55;4.53;;;;;;;27.73;34.15;100154.56;5004372;28;20058;-77
2021/09/10 09:40:53;;;;;;;11.52;5.47;;;;;;;27.85;33.41;100148.16;5001393;28;20248;-77
2021/09/10 09:43:21;;;;;;;8.65;4.38;;;;;;;27.89;33.56;100153.97;5003302;28;20069;-77
2021/09/10 09:45:50;;;;;;;7.85;4.28;;;;;;;28.08;32.88;100151.28;5002866;28;20058;-77
2021/09/10 09:48:18;;;;;;;8.55;4.35;;;;;;;28.13;33.05;100151.41;5006105;28;20740;-81
2021/09/10 09:50:48;;;;;;;7.80;3.35;;;;;;;28.28;32.27;100145.56;5004994;28;20140;-79
2021/09/10 09:53:15;;;;;;;10.82;4.47;;;;;;;28.39;32.36;100150.19;5003907;28;20057;-79
2021/09/10 09:55:44;;;;;;;9.40;4.82;;;;;;;28.41;32.41;100151.63;5002574;28;20054;-78
2021/09/10 09:58:13;;;;;;;5.35;3.50;;;;;;;28.38;32.41;100143.94;5002796;28;20046;-78
2021/09/10 10:00:42;;;;;;;7.70;3.53;;;;;;;28.44;32.25;100146.81;5009578;28;20084;-78
2021/09/10 10:03:09;;;;;;;8.70;4.40;;;;;;;28.50;32.60;100141.25;5012831;28;20048;-79
2021/09/10 10:05:49;;;;;;;7.63;4.30;;;;;;;28.50;31.57;100143.13;5046539;28;20131;-77
2021/09/10 10:08:20;;;;;;;6.25;4.22;;;;;;;28.56;31.33;100153.13;5071532;28;20052;-77
2021/09/10 10:10:52;;;;;;;8.50;4.93;;;;;;;28.75;31.24;100143.81;5067889;28;20053;-75
2021/09/10 10:13:27;;;;;;;11.98;5.22;;;;;;;29.03;31.20;100139.59;5070835;28;20077;-73
2021/09/10 10:15:54;;;;;;;5.50;4.07;;;;;;;29.14;31.18;100138.78;5069502;28;20046;-75
2021/09/10 10:18:41;;;;;;;13.95;3.75;;;;;;;29.36;30.67;100140.91;5068529;28;20044;-73
2021/09/10 10:21:09;;;;;;;8.18;3.42;;;;;;;29.39;30.71;100143.16;5068014;28;20059;-74
2021/09/10 10:23:57;;;;;;;6.85;3.70;;;;;;;29.54;30.71;100137.22;5065067;28;20063;-75
2021/09/10 10:26:42;;;;;;;6.60;3.15;;;;;;;29.64;30.12;100139.31;5065466;28;20140;-76
2021/09/10 10:29:13;;;;;;;8.63;3.72;;;;;;;29.65;30.48;100136.34;5069374;28;20095;-77
2021/09/10 10:32:08;;;;;;;6.55;3.38;;;;;;;29.74;30.10;100145.84;5068596;28;20653;-78
2021/09/10 10:34:57;;;;;;;8.23;3.80;;;;;;;29.78;30.21;100143.44;5069059;28;20052;-75
2021/09/10 10:37:42;;;;;;;9.20;3.70;;;;;;;29.91;29.98;100135.03;5066332;28;20305;-76
2021/09/10 10:40:30;;;;;;;5.57;3.47;;;;;;;29.95;29.22;100137.28;5066926;28;20040;-78
2021/09/10 10:43:03;;;;;;;7.15;2.83;;;;;;;29.82;29.19;100132.91;5068794;28;20700;-76
2021/09/10 10:46:05;;;;;;;10.35;3.72;;;;;;;29.96;29.51;100123.38;5066165;28;20053;-74
2021/09/10 10:48:49;;;;;;;7.13;3.65;;;;;;;30.08;28.84;100132.34;5067150;28;20052;-77
2021/09/10 10:51:39;;;;;;;11.77;5.50;;;;;;;30.25;28.42;100124.22;5063766;28;20704;-77
2021/09/10 10:54:14;;;;;;;9.65;2.88;;;;;;;30.24;28.01;100122.56;5062933;28;20045;-75
2021/09/10 10:56:48;;;;;;;4.78;3.05;;;;;;;30.14;27.94;100127.81;5063606;28;20507;-74
2021/09/10 10:59:38;;;;;;;5.05;3.35;;;;;;;30.11;27.90;100131.88;5073520;28;20131;-74
2021/09/10 11:02:35;;;;;;;7.75;3.50;;;;;;;30.06;28.11;100125.50;5062648;28;20123;-75
2021/09/10 11:05:13;;;;;;;7.32;3.13;;;;;;;29.95;28.44;100126.38;5067168;28;20056;-74
2021/09/10 11:07:40;;;;;;;9.20;3.40;;;;;;;29.95;28.43;100126.38;5069339;28;20055;-74
2021/09/10 11:10:08;;;;;;;8.20;4.15;;;;;;;30.03;28.71;100121.34;5067489;28;20229;-75
2021/09/10 11:12:37;;;;;;;9.57;3.28;;;;;;;30.04;28.31;100131.19;5067539;28;20045;-79
2021/09/10 11:15:19;;;;;;;7.53;3.53;;;;;;;30.09;28.68;100125.03;5070276;28;20056;-77
2021/09/10 11:17:54;;;;;;;4.68;2.83;;;;;;;30.08;28.50;100116.00;5067889;28;20083;-76
2021/09/10 11:20:30;;;;;;;7.43;3.38;;;;;;;30.03;28.15;100118.63;5067781;28;20049;-74
2021/09/10 11:22:58;;;;;;;10.35;3.72;;;;;;;30.00;27.74;100116.41;5065173;28;20131;-77
2021/09/10 11:25:25;;;;;;;4.78;3.10;;;;;;;29.89;27.70;100118.13;5067890;28;20166;-76